createdAt,value
2018-05-15T00:00:49.891Z,2.60
2018-05-15T00:01:50.118Z,2.60
2018-05-15T00:02:50.352Z,2.70
2018-05-15T00:03:50.585Z,2.60
2018-05-15T00:04:50.815Z,2.30
2018-05-15T00:05:51.049Z,2.70
2018-05-15T00:06:51.272Z,3.00
2018-05-15T00:07:51.503Z,2.50
2018-05-15T00:08:51.731Z,2.50
2018-05-15T00:09:51.960Z,2.10
2018-05-15T00:10:52.190Z,2.70
2018-05-15T00:11:52.420Z,2.70
2018-05-15T00:12:52.652Z,2.70
2018-05-15T00:13:52.877Z,2.70
2018-05-15T00:14:53.104Z,2.80
2018-05-15T00:15:53.336Z,2.70
2018-05-15T00:16:53.562Z,3.40
2018-05-15T00:17:53.795Z,3.70
2018-05-15T00:18:54.029Z,3.00
2018-05-15T00:19:54.255Z,2.50
2018-05-15T00:20:54.484Z,2.60
2018-05-15T00:21:54.715Z,3.20
2018-05-15T00:22:54.945Z,2.70
2018-05-15T00:23:55.174Z,2.80
2018-05-15T00:24:55.411Z,3.00
2018-05-15T00:25:55.636Z,3.40
2018-05-15T00:26:55.865Z,2.80
2018-05-15T00:27:56.093Z,2.60
2018-05-15T00:28:56.326Z,2.60
2018-05-15T00:29:56.556Z,2.70
2018-05-15T00:30:56.788Z,2.80
2018-05-15T00:31:57.018Z,3.10
2018-05-15T00:32:57.250Z,3.60
2018-05-15T00:33:57.514Z,3.40
2018-05-15T00:34:57.710Z,4.00
2018-05-15T00:35:57.938Z,4.00
2018-05-15T00:36:58.172Z,3.10
2018-05-15T00:37:58.398Z,3.80
2018-05-15T00:38:58.629Z,3.50
2018-05-15T00:39:58.857Z,3.10
2018-05-15T00:40:59.085Z,3.50
2018-05-15T00:41:59.315Z,3.30
2018-05-15T00:42:59.543Z,3.30
2018-05-15T00:43:59.773Z,3.10
2018-05-15T00:45:00.009Z,2.80
2018-05-15T00:46:00.230Z,2.90
2018-05-15T00:47:00.459Z,2.70
2018-05-15T00:48:00.690Z,3.00
2018-05-15T00:49:00.918Z,3.70
2018-05-15T00:50:01.154Z,3.70
2018-05-15T00:51:01.379Z,3.60
2018-05-15T00:52:01.609Z,3.80
2018-05-15T00:53:01.842Z,3.10
2018-05-15T00:54:02.070Z,3.00
2018-05-15T00:55:02.300Z,2.90
2018-05-15T00:56:02.528Z,2.60
2018-05-15T00:57:02.753Z,2.90
2018-05-15T00:58:02.983Z,3.10
2018-05-15T00:59:03.216Z,2.70
2018-05-15T01:00:03.443Z,2.40
2018-05-15T01:01:03.674Z,2.50
2018-05-15T01:02:03.906Z,2.80
2018-05-15T01:03:04.131Z,2.80
2018-05-15T01:04:04.360Z,2.80
2018-05-15T01:05:04.594Z,3.00
2018-05-15T01:06:04.823Z,2.50
2018-05-15T01:07:05.055Z,2.60
2018-05-15T01:08:05.282Z,2.40
2018-05-15T01:09:05.514Z,3.00
2018-05-15T01:10:05.742Z,2.90
2018-05-15T01:11:05.969Z,3.00
2018-05-15T01:12:06.199Z,2.80
2018-05-15T01:13:06.426Z,3.00
2018-05-15T01:14:06.661Z,2.70
2018-05-15T01:15:06.885Z,2.50
2018-05-15T01:16:07.112Z,2.60
2018-05-15T01:17:07.341Z,2.70
2018-05-15T01:18:07.572Z,3.10
2018-05-15T01:19:07.811Z,3.10
2018-05-15T01:20:08.025Z,2.90
2018-05-15T01:21:08.254Z,2.70
2018-05-15T01:22:08.483Z,3.30
2018-05-15T01:23:08.714Z,2.80
2018-05-15T01:24:08.942Z,2.80
2018-05-15T01:25:09.174Z,2.80
2018-05-15T01:26:09.399Z,2.70
2018-05-15T01:27:09.629Z,2.90
2018-05-15T01:28:09.859Z,2.80
2018-05-15T01:29:10.087Z,2.50
2018-05-15T01:30:10.312Z,2.70
2018-05-15T01:31:10.555Z,2.80
2018-05-15T01:32:10.770Z,2.40
2018-05-15T01:33:11.006Z,2.70
2018-05-15T01:34:11.230Z,2.70
2018-05-15T01:35:11.458Z,3.00
2018-05-15T01:36:11.689Z,2.90
2018-05-15T01:37:11.922Z,2.60
2018-05-15T01:38:12.145Z,2.90
2018-05-15T01:39:12.377Z,2.70
2018-05-15T01:40:12.607Z,2.90
2018-05-15T01:41:12.839Z,2.70
2018-05-15T01:42:13.065Z,2.90
2018-05-15T01:43:13.295Z,2.90
2018-05-15T01:44:13.520Z,3.10
2018-05-15T01:45:13.748Z,2.80
2018-05-15T01:46:13.976Z,2.70
2018-05-15T01:47:14.209Z,3.20
2018-05-15T01:48:14.439Z,3.20
2018-05-15T01:49:14.671Z,2.80
2018-05-15T01:50:14.890Z,3.20
2018-05-15T01:51:15.120Z,3.00
2018-05-15T01:52:15.364Z,2.40
2018-05-15T01:53:15.577Z,3.00
2018-05-15T01:54:15.805Z,2.80
2018-05-15T01:55:16.032Z,2.80
2018-05-15T01:56:16.262Z,3.50
2018-05-15T01:57:16.490Z,3.10
2018-05-15T01:58:16.708Z,2.30
2018-05-15T01:59:16.936Z,2.90
2018-05-15T02:00:17.165Z,3.20
2018-05-15T02:01:17.396Z,3.00
2018-05-15T02:02:17.630Z,2.90
2018-05-15T02:03:17.855Z,2.80
2018-05-15T02:04:18.088Z,2.80
2018-05-15T02:05:18.315Z,2.80
2018-05-15T02:06:18.556Z,3.20
2018-05-15T02:07:18.773Z,2.90
2018-05-15T02:08:19.002Z,3.10
2018-05-15T02:09:19.238Z,3.00
2018-05-15T02:10:19.465Z,3.30
2018-05-15T02:11:19.693Z,3.30
2018-05-15T02:12:19.931Z,3.10
2018-05-15T02:13:20.149Z,3.20
2018-05-15T02:14:20.379Z,3.10
2018-05-15T02:15:20.611Z,2.90
2018-05-15T02:16:20.838Z,3.10
2018-05-15T02:17:21.069Z,3.30
2018-05-15T02:18:21.297Z,3.40
2018-05-15T02:19:21.526Z,3.20
2018-05-15T02:20:21.753Z,2.80
2018-05-15T02:21:21.986Z,3.00
2018-05-15T02:22:22.215Z,2.80
2018-05-15T02:23:22.443Z,3.10
2018-05-15T02:24:22.673Z,2.90
2018-05-15T02:25:22.903Z,2.80
2018-05-15T02:26:23.134Z,3.20
2018-05-15T02:27:23.364Z,3.10
2018-05-15T02:28:23.589Z,2.90
2018-05-15T02:29:23.821Z,2.80
2018-05-15T02:30:24.091Z,2.80
2018-05-15T02:31:24.281Z,3.80
2018-05-15T02:32:24.515Z,2.80
2018-05-15T02:33:24.743Z,3.30
2018-05-15T02:34:24.975Z,3.20
2018-05-15T02:35:25.204Z,3.40
2018-05-15T02:36:25.432Z,2.70
2018-05-15T02:37:25.658Z,2.70
2018-05-15T02:38:25.885Z,3.40
2018-05-15T02:39:26.120Z,3.10
2018-05-15T02:40:26.347Z,3.00
2018-05-15T02:41:26.574Z,3.20
2018-05-15T02:42:26.807Z,3.70
2018-05-15T02:43:27.033Z,3.00
2018-05-15T02:44:27.263Z,2.70
2018-05-15T02:45:27.492Z,3.10
2018-05-15T02:46:27.727Z,3.10
2018-05-15T02:47:27.955Z,2.70
2018-05-15T02:48:28.188Z,3.10
2018-05-15T02:49:28.418Z,3.00
2018-05-15T02:50:28.646Z,3.10
2018-05-15T02:51:28.873Z,3.00
2018-05-15T02:52:29.103Z,3.30
2018-05-15T02:53:29.331Z,3.50
2018-05-15T02:54:29.562Z,2.50
2018-05-15T02:55:29.792Z,3.10
2018-05-15T02:56:30.021Z,3.50
2018-05-15T02:57:30.257Z,3.00
2018-05-15T02:58:30.474Z,3.40
2018-05-15T02:59:30.708Z,3.30
2018-05-15T03:00:30.934Z,3.40
2018-05-15T03:01:31.205Z,3.30
2018-05-15T03:02:31.381Z,3.70
2018-05-15T03:03:31.616Z,3.00
2018-05-15T03:04:31.844Z,3.20
2018-05-15T03:05:32.071Z,3.20
2018-05-15T03:06:32.303Z,2.70
2018-05-15T03:07:32.529Z,3.50
2018-05-15T03:08:32.758Z,3.20
2018-05-15T03:09:32.992Z,3.10
2018-05-15T03:10:33.220Z,2.90
2018-05-15T03:11:33.535Z,3.20
2018-05-15T03:12:33.679Z,3.10
2018-05-15T03:13:33.912Z,4.70
2018-05-15T03:14:34.159Z,3.50
2018-05-15T03:15:34.371Z,4.30
2018-05-15T03:16:34.612Z,5.10
2018-05-15T03:17:34.830Z,4.40
2018-05-15T03:18:35.145Z,5.20
2018-05-15T03:19:35.290Z,7.50
2018-05-15T03:20:35.522Z,7.90
2018-05-15T03:21:35.749Z,7.50
2018-05-15T03:22:35.979Z,6.80
2018-05-15T03:23:36.205Z,6.60
2018-05-15T03:24:36.436Z,5.60
2018-05-15T03:25:36.668Z,5.60
2018-05-15T03:26:36.890Z,6.30
2018-05-15T03:27:37.123Z,5.80
2018-05-15T03:28:37.351Z,7.00
2018-05-15T03:29:37.587Z,4.80
2018-05-15T03:30:37.812Z,4.20
2018-05-15T03:31:38.044Z,3.80
2018-05-15T03:32:38.268Z,3.70
2018-05-15T03:33:38.498Z,3.80
2018-05-15T03:34:38.745Z,3.90
2018-05-15T03:35:38.976Z,4.90
2018-05-15T03:36:39.208Z,5.90
2018-05-15T03:37:39.432Z,7.00
2018-05-15T03:38:39.661Z,8.30
2018-05-15T03:39:39.889Z,7.80
2018-05-15T03:40:40.118Z,6.80
2018-05-15T03:41:40.346Z,7.40
2018-05-15T03:42:40.589Z,6.10
2018-05-15T03:43:40.803Z,5.70
2018-05-15T03:44:41.038Z,5.90
2018-05-15T03:45:41.263Z,6.80
2018-05-15T03:46:41.500Z,7.50
2018-05-15T03:47:41.725Z,6.80
2018-05-15T03:48:41.959Z,6.30
2018-05-15T03:49:42.180Z,6.10
2018-05-15T03:50:42.416Z,6.70
2018-05-15T03:51:42.647Z,5.50
2018-05-15T03:52:42.875Z,4.10
2018-05-15T03:53:43.116Z,4.00
2018-05-15T03:54:43.334Z,4.70
2018-05-15T03:55:43.565Z,3.80
2018-05-15T03:56:43.799Z,3.60
2018-05-15T03:57:44.032Z,3.70
2018-05-15T03:58:44.263Z,3.90
2018-05-15T03:59:44.489Z,3.90
2018-05-15T04:00:44.722Z,4.20
2018-05-15T04:01:44.949Z,4.50
2018-05-15T04:02:45.178Z,5.70
2018-05-15T04:03:45.408Z,3.50
2018-05-15T04:04:45.636Z,3.60
2018-05-15T04:05:45.865Z,5.50
2018-05-15T04:06:46.103Z,4.90
2018-05-15T04:07:46.332Z,4.80
2018-05-15T04:08:46.663Z,3.90
2018-05-15T04:09:46.785Z,4.60
2018-05-15T04:10:47.027Z,4.80
2018-05-15T04:11:47.243Z,6.20
2018-05-15T04:12:47.471Z,4.60
2018-05-15T04:13:47.702Z,4.60
2018-05-15T04:14:47.932Z,5.50
2018-05-15T04:15:48.166Z,6.90
2018-05-15T04:16:48.393Z,6.20
2018-05-15T04:17:48.624Z,6.00
2018-05-15T04:18:48.859Z,5.80
2018-05-15T04:19:49.085Z,5.50
2018-05-15T04:20:49.323Z,5.20
2018-05-15T04:21:49.546Z,5.60
2018-05-15T04:22:49.777Z,4.60
2018-05-15T04:23:50.009Z,4.80
2018-05-15T04:24:50.231Z,5.30
2018-05-15T04:25:50.471Z,4.60
2018-05-15T04:26:50.702Z,5.10
2018-05-15T04:27:50.937Z,5.50
2018-05-15T04:28:51.156Z,4.80
2018-05-15T04:29:51.388Z,5.20
2018-05-15T04:30:51.618Z,5.20
2018-05-15T04:31:51.851Z,5.70
2018-05-15T04:32:52.080Z,5.10
2018-05-15T04:33:52.309Z,5.10
2018-05-15T04:34:52.545Z,5.10
2018-05-15T04:35:52.775Z,5.70
2018-05-15T04:36:53.011Z,5.00
2018-05-15T04:37:53.234Z,4.90
2018-05-15T04:38:53.465Z,5.10
2018-05-15T04:39:53.697Z,4.80
2018-05-15T04:40:53.935Z,5.40
2018-05-15T04:41:54.167Z,4.50
2018-05-15T04:42:54.399Z,4.80
2018-05-15T04:43:54.753Z,5.10
2018-05-15T04:44:54.852Z,4.50
2018-05-15T04:45:55.086Z,3.70
2018-05-15T04:46:55.315Z,3.90
2018-05-15T04:47:55.546Z,3.20
2018-05-15T04:48:55.777Z,3.30
2018-05-15T04:49:56.008Z,3.50
2018-05-15T04:50:56.238Z,3.00
2018-05-15T04:51:56.467Z,3.70
2018-05-15T04:52:56.700Z,3.00
2018-05-15T04:53:56.925Z,3.30
2018-05-15T04:54:57.155Z,3.20
2018-05-15T04:55:57.378Z,3.40
2018-05-15T04:56:57.625Z,3.30
2018-05-15T04:57:57.854Z,3.20
2018-05-15T04:58:58.082Z,2.90
2018-05-15T04:59:58.316Z,3.30
2018-05-15T05:00:58.546Z,3.50
2018-05-15T05:01:58.841Z,3.10
2018-05-15T05:02:59.007Z,3.50
2018-05-15T05:03:59.238Z,3.30
2018-05-15T05:04:59.469Z,3.50
2018-05-15T05:05:59.698Z,3.30
2018-05-15T05:06:59.927Z,3.60
2018-05-15T05:08:00.156Z,3.40
2018-05-15T05:09:00.389Z,3.40
2018-05-15T05:10:00.609Z,3.40
2018-05-15T05:11:00.840Z,3.70
2018-05-15T05:12:01.069Z,3.90
2018-05-15T05:13:01.296Z,3.70
2018-05-15T05:14:01.529Z,3.60
2018-05-15T05:15:01.758Z,3.80
2018-05-15T05:16:01.987Z,3.60
2018-05-15T05:17:02.222Z,4.00
2018-05-15T05:18:02.510Z,3.70
2018-05-15T05:19:02.685Z,3.90
2018-05-15T05:20:02.919Z,3.80
2018-05-15T05:21:03.225Z,5.20
2018-05-15T05:22:03.381Z,4.20
2018-05-15T05:23:03.616Z,4.00
2018-05-15T05:24:03.843Z,5.40
2018-05-15T05:25:04.072Z,4.80
2018-05-15T05:26:04.300Z,4.30
2018-05-15T05:27:04.576Z,4.60
2018-05-15T05:28:04.768Z,5.50
2018-05-15T05:29:05.006Z,5.00
2018-05-15T05:30:05.230Z,5.50
2018-05-15T05:31:05.459Z,5.30
2018-05-15T05:32:05.698Z,4.90
2018-05-15T05:33:05.918Z,4.70
2018-05-15T05:34:06.172Z,4.60
2018-05-15T05:35:06.396Z,4.30
2018-05-15T05:36:06.633Z,4.40
2018-05-15T05:37:06.864Z,4.60
2018-05-15T05:38:07.100Z,3.90
2018-05-15T05:39:07.338Z,4.30
2018-05-15T05:40:07.597Z,4.90
2018-05-15T05:41:07.798Z,4.00
2018-05-15T05:42:08.034Z,4.60
2018-05-15T05:43:08.269Z,4.80
2018-05-15T05:44:08.500Z,5.40
2018-05-15T05:45:08.734Z,5.30
2018-05-15T05:46:08.968Z,5.50
2018-05-15T05:47:09.197Z,5.10
2018-05-15T05:48:09.433Z,5.00
2018-05-15T05:49:09.664Z,5.00
2018-05-15T05:50:09.907Z,5.00
2018-05-15T05:51:10.135Z,4.00
2018-05-15T05:52:10.369Z,3.70
2018-05-15T05:53:10.606Z,3.80
2018-05-15T05:54:10.834Z,4.20
2018-05-15T05:55:11.066Z,4.60
2018-05-15T05:56:11.299Z,4.10
2018-05-15T05:57:11.534Z,3.70
2018-05-15T05:58:11.766Z,4.40
2018-05-15T05:59:11.989Z,3.90
2018-05-15T06:00:12.219Z,4.20
2018-05-15T06:01:12.455Z,4.10
2018-05-15T06:02:12.685Z,4.00
2018-05-15T06:03:12.922Z,4.20
2018-05-15T06:04:13.151Z,4.00
2018-05-15T06:05:13.385Z,4.40
2018-05-15T06:06:13.621Z,3.60
2018-05-15T06:07:13.851Z,3.40
2018-05-15T06:08:14.090Z,3.60
2018-05-15T06:09:14.304Z,3.50
2018-05-15T06:10:14.540Z,3.40
2018-05-15T06:11:14.777Z,3.40
2018-05-15T06:12:15.005Z,3.40
2018-05-15T06:13:15.241Z,3.40
2018-05-15T06:14:15.477Z,3.50
2018-05-15T06:15:15.695Z,3.00
2018-05-15T06:16:15.943Z,3.50
2018-05-15T06:17:16.171Z,3.10
2018-05-15T06:18:16.402Z,3.20
2018-05-15T06:19:16.650Z,3.10
2018-05-15T06:20:16.855Z,3.30
2018-05-15T06:21:17.085Z,3.10
2018-05-15T06:22:17.318Z,3.30
2018-05-15T06:23:17.554Z,3.00
2018-05-15T06:24:17.781Z,3.70
2018-05-15T06:25:18.011Z,3.50
2018-05-15T06:26:18.246Z,3.60
2018-05-15T06:27:18.483Z,3.50
2018-05-15T06:28:18.721Z,3.30
2018-05-15T06:29:18.939Z,3.50
2018-05-15T06:30:19.175Z,3.70
2018-05-15T06:31:19.409Z,3.90
2018-05-15T06:32:19.656Z,4.50
2018-05-15T06:33:19.885Z,4.80
2018-05-15T06:34:20.110Z,4.20
2018-05-15T06:35:20.342Z,4.30
2018-05-15T06:36:20.576Z,5.10
2018-05-15T06:37:20.809Z,4.70
2018-05-15T06:38:21.036Z,4.20
2018-05-15T06:39:21.264Z,4.40
2018-05-15T06:40:21.497Z,4.10
2018-05-15T06:41:21.725Z,4.80
2018-05-15T06:42:21.959Z,5.40
2018-05-15T06:43:22.198Z,4.40
2018-05-15T06:44:22.424Z,4.10
2018-05-15T06:45:22.651Z,3.90
2018-05-15T06:46:22.956Z,3.30
2018-05-15T06:47:23.110Z,4.80
2018-05-15T06:48:23.339Z,4.70
2018-05-15T06:49:23.571Z,4.90
2018-05-15T06:50:23.800Z,4.30
2018-05-15T06:51:24.032Z,4.40
2018-05-15T06:52:24.266Z,5.10
2018-05-15T06:53:24.497Z,4.60
2018-05-15T06:54:24.725Z,5.70
2018-05-15T06:55:24.958Z,6.50
2018-05-15T06:56:25.189Z,3.90
2018-05-15T06:57:25.424Z,4.70
2018-05-15T06:58:25.656Z,4.60
2018-05-15T06:59:25.886Z,4.10
2018-05-15T07:00:26.119Z,4.80
2018-05-15T07:01:26.353Z,4.80
2018-05-15T07:02:26.591Z,4.00
2018-05-15T07:03:26.826Z,3.50
2018-05-15T07:04:27.056Z,4.10
2018-05-15T07:05:27.288Z,3.90
2018-05-15T07:06:27.521Z,3.50
2018-05-15T07:07:27.753Z,3.60
2018-05-15T07:08:27.988Z,3.00
2018-05-15T07:09:28.226Z,4.20
2018-05-15T07:10:28.460Z,4.10
2018-05-15T07:11:28.693Z,3.90
2018-05-15T07:12:28.937Z,5.80
2018-05-15T07:13:29.162Z,4.10
2018-05-15T07:14:29.396Z,4.30
2018-05-15T07:15:29.633Z,3.80
2018-05-15T07:16:29.860Z,3.60
2018-05-15T07:17:30.101Z,3.90
2018-05-15T07:18:30.329Z,3.80
2018-05-15T07:19:30.574Z,3.10
2018-05-15T07:20:30.808Z,3.10
2018-05-15T07:21:31.040Z,3.00
2018-05-15T07:22:31.274Z,2.70
2018-05-15T07:23:31.507Z,3.10
2018-05-15T07:24:31.739Z,3.10
2018-05-15T07:25:31.972Z,3.30
2018-05-15T07:26:32.207Z,2.90
2018-05-15T07:27:32.436Z,3.10
2018-05-15T07:28:32.675Z,2.80
2018-05-15T07:29:32.911Z,3.20
2018-05-15T07:30:33.144Z,3.00
2018-05-15T07:31:33.381Z,3.10
2018-05-15T07:32:33.613Z,3.10
2018-05-15T07:33:33.844Z,3.30
2018-05-15T07:34:34.080Z,2.60
2018-05-15T07:35:34.317Z,2.90
2018-05-15T07:36:34.551Z,2.80
2018-05-15T07:37:34.788Z,2.90
2018-05-15T07:38:35.021Z,2.60
2018-05-15T07:39:35.259Z,2.90
2018-05-15T07:40:35.494Z,3.00
2018-05-15T07:41:35.726Z,2.80
2018-05-15T07:42:35.962Z,3.30
2018-05-15T07:43:36.199Z,2.70
2018-05-15T07:44:36.426Z,2.90
2018-05-15T07:45:36.657Z,2.90
2018-05-15T07:46:36.895Z,3.00
2018-05-15T07:47:37.128Z,2.80
2018-05-15T07:48:37.361Z,2.80
2018-05-15T07:49:37.600Z,2.70
2018-05-15T07:50:37.833Z,2.80
2018-05-15T07:51:38.076Z,2.80
2018-05-15T07:52:38.306Z,2.90
2018-05-15T07:53:38.636Z,3.00
2018-05-15T07:54:38.780Z,3.20
2018-05-15T07:55:39.014Z,2.70
2018-05-15T07:56:39.251Z,3.20
2018-05-15T07:57:39.481Z,2.80
2018-05-15T07:58:39.720Z,2.60
2018-05-15T07:59:39.953Z,2.90
2018-05-15T08:00:40.187Z,2.90
2018-05-15T08:01:40.423Z,2.90
2018-05-15T08:02:40.657Z,3.00
2018-05-15T08:03:40.895Z,2.80
2018-05-15T08:04:41.115Z,2.90
2018-05-15T08:05:41.370Z,2.50
2018-05-15T08:06:41.603Z,3.10
2018-05-15T08:07:41.842Z,2.90
2018-05-15T08:08:42.085Z,3.20
2018-05-15T08:09:42.314Z,2.50
2018-05-15T08:10:42.543Z,2.90
2018-05-15T08:11:42.777Z,3.00
2018-05-15T08:12:43.009Z,3.00
2018-05-15T08:13:43.244Z,3.10
2018-05-15T08:14:43.478Z,2.80
2018-05-15T08:15:43.717Z,2.80
2018-05-15T08:16:43.947Z,3.00
2018-05-15T08:17:44.184Z,2.70
2018-05-15T08:18:44.417Z,2.80
2018-05-15T08:19:44.657Z,2.70
2018-05-15T08:20:44.888Z,3.00
2018-05-15T08:21:45.122Z,3.00
2018-05-15T08:22:45.359Z,2.90
2018-05-15T08:23:45.586Z,2.90
2018-05-15T08:24:45.824Z,3.00
2018-05-15T08:25:46.057Z,2.90
2018-05-15T08:26:46.292Z,3.00
2018-05-15T08:27:46.533Z,2.80
2018-05-15T08:28:46.768Z,2.80
2018-05-15T08:29:47.004Z,2.80
2018-05-15T08:30:47.266Z,2.90
2018-05-15T08:31:47.470Z,2.80
2018-05-15T08:32:47.700Z,3.20
2018-05-15T08:33:47.933Z,3.50
2018-05-15T08:34:48.166Z,2.80
2018-05-15T08:35:48.401Z,2.50
2018-05-15T08:36:48.637Z,2.70
2018-05-15T08:37:48.868Z,2.80
2018-05-15T08:38:49.103Z,3.00
2018-05-15T08:39:49.336Z,2.90
2018-05-15T08:40:49.573Z,2.70
2018-05-15T08:41:49.808Z,2.90
2018-05-15T08:42:50.045Z,3.00
2018-05-15T08:43:50.277Z,2.40
2018-05-15T08:44:50.510Z,2.70
2018-05-15T08:45:50.742Z,3.40
2018-05-15T08:46:50.975Z,3.20
2018-05-15T08:47:51.209Z,2.90
2018-05-15T08:48:51.445Z,2.40
2018-05-15T08:49:51.680Z,3.00
2018-05-15T08:50:51.911Z,2.60
2018-05-15T08:51:52.141Z,2.60
2018-05-15T08:52:52.374Z,2.60
2018-05-15T08:53:52.606Z,2.80
2018-05-15T08:54:52.840Z,2.70
2018-05-15T08:55:53.077Z,2.80
2018-05-15T08:56:53.312Z,3.00
2018-05-15T08:57:53.550Z,2.80
2018-05-15T08:58:53.785Z,2.80
2018-05-15T08:59:54.018Z,2.40
2018-05-15T09:00:54.257Z,2.80
2018-05-15T09:01:54.488Z,2.80
2018-05-15T09:02:54.725Z,2.90
2018-05-15T09:03:54.957Z,3.10
2018-05-15T09:04:55.195Z,2.90
2018-05-15T09:05:55.425Z,2.70
2018-05-15T09:06:55.658Z,2.60
2018-05-15T09:07:55.892Z,2.10
2018-05-15T09:08:56.126Z,2.80
2018-05-15T09:09:56.361Z,2.50
2018-05-15T09:10:56.594Z,2.80
2018-05-15T09:11:56.829Z,3.00
2018-05-15T09:12:57.063Z,3.10
2018-05-15T09:13:57.300Z,3.00
2018-05-15T09:14:57.533Z,2.80
2018-05-15T09:15:57.768Z,2.90
2018-05-15T09:16:58.003Z,3.10
2018-05-15T09:17:58.238Z,2.80
2018-05-15T09:18:58.503Z,2.70
2018-05-15T09:19:58.713Z,2.80
2018-05-15T09:20:58.951Z,3.00
2018-05-15T09:21:59.181Z,3.30
2018-05-15T09:22:59.417Z,2.50
2018-05-15T09:23:59.657Z,2.70
2018-05-15T09:24:59.892Z,2.70
2018-05-15T09:26:00.127Z,2.80
2018-05-15T09:27:00.364Z,3.00
2018-05-15T09:28:00.596Z,2.50
2018-05-15T09:29:00.838Z,2.60
2018-05-15T09:30:01.997Z,2.50
2018-05-15T09:31:01.353Z,2.60
2018-05-15T09:32:01.590Z,2.60
2018-05-15T09:33:01.824Z,2.70
2018-05-15T09:34:02.057Z,2.80
2018-05-15T09:35:02.293Z,2.80
2018-05-15T09:36:02.531Z,2.80
2018-05-15T09:37:02.763Z,2.90
2018-05-15T09:38:02.997Z,3.00
2018-05-15T09:39:03.232Z,2.90
2018-05-15T09:40:03.469Z,2.90
2018-05-15T09:41:03.706Z,2.70
2018-05-15T09:42:03.935Z,2.50
2018-05-15T09:43:04.177Z,2.50
2018-05-15T09:44:04.404Z,3.20
2018-05-15T09:45:04.640Z,2.90
2018-05-15T09:46:04.874Z,3.00
2018-05-15T09:47:05.111Z,2.50
2018-05-15T09:48:05.350Z,2.60
2018-05-15T09:49:05.589Z,2.60
2018-05-15T09:50:05.821Z,3.00
2018-05-15T09:51:06.063Z,2.60
2018-05-15T09:52:06.298Z,2.60
2018-05-15T09:53:06.532Z,2.90
2018-05-15T09:54:06.766Z,2.70
2018-05-15T09:55:07.006Z,2.60
2018-05-15T09:56:07.246Z,2.80
2018-05-15T09:57:07.475Z,2.90
2018-05-15T09:58:07.714Z,2.50
2018-05-15T09:59:07.954Z,2.70
2018-05-15T10:00:08.189Z,2.90
2018-05-15T10:01:08.431Z,2.80
2018-05-15T10:02:08.673Z,3.00
2018-05-15T10:03:08.904Z,2.70
2018-05-15T10:04:10.004Z,2.60
2018-05-15T10:05:09.371Z,3.00
2018-05-15T10:06:09.599Z,2.80
2018-05-15T10:07:09.830Z,2.90
2018-05-15T10:08:10.184Z,3.30
2018-05-15T10:09:10.304Z,3.00
2018-05-15T10:10:10.538Z,3.10
2018-05-15T10:11:10.779Z,2.70
2018-05-15T10:12:11.011Z,2.60
2018-05-15T10:13:11.248Z,2.50
2018-05-15T10:14:11.502Z,2.90
2018-05-15T10:15:11.717Z,2.60
2018-05-15T10:16:11.965Z,2.50
2018-05-15T10:17:12.194Z,3.00
2018-05-15T10:18:12.431Z,2.90
2018-05-15T10:19:12.661Z,2.90
2018-05-15T10:20:12.903Z,2.90
2018-05-15T10:21:13.138Z,3.00
2018-05-15T10:22:13.372Z,2.80
2018-05-15T10:23:13.609Z,2.90
2018-05-15T10:24:13.852Z,2.60
2018-05-15T10:25:14.088Z,3.20
2018-05-15T10:26:14.368Z,3.10
2018-05-15T10:27:14.565Z,2.40
2018-05-15T10:28:14.799Z,2.90
2018-05-15T10:29:15.033Z,3.00
2018-05-15T10:30:15.269Z,2.80
2018-05-15T10:31:15.504Z,3.10
2018-05-15T10:32:15.801Z,3.20
2018-05-15T10:33:15.984Z,3.20
2018-05-15T10:34:16.216Z,3.00
2018-05-15T10:35:16.454Z,2.70
2018-05-15T10:36:16.710Z,2.80
2018-05-15T10:37:16.994Z,2.60
2018-05-15T10:38:17.166Z,2.70
2018-05-15T10:39:17.399Z,3.20
2018-05-15T10:40:17.634Z,3.00
2018-05-15T10:41:17.875Z,2.70
2018-05-15T10:42:18.110Z,3.10
2018-05-15T10:43:18.338Z,3.20
2018-05-15T10:44:18.578Z,3.00
2018-05-15T10:45:18.816Z,2.70
2018-05-15T10:46:19.053Z,3.20
2018-05-15T10:47:19.288Z,2.80
2018-05-15T10:48:19.521Z,3.10
2018-05-15T10:49:19.759Z,2.70
2018-05-15T10:50:19.994Z,2.90
2018-05-15T10:51:20.225Z,2.80
2018-05-15T10:52:20.464Z,2.80
2018-05-15T10:53:20.701Z,2.90
2018-05-15T10:54:20.939Z,3.10
2018-05-15T10:55:21.254Z,2.80
2018-05-15T10:56:21.409Z,3.20
2018-05-15T10:57:21.640Z,3.30
2018-05-15T10:58:21.870Z,2.70
2018-05-15T10:59:22.109Z,3.40
2018-05-15T11:00:22.337Z,3.70
2018-05-15T11:01:22.570Z,2.70
2018-05-15T11:02:22.808Z,2.70
2018-05-15T11:03:23.041Z,2.70
2018-05-15T11:04:23.278Z,2.70
2018-05-15T11:05:23.514Z,2.50
2018-05-15T11:06:23.755Z,2.80
2018-05-15T11:07:23.992Z,3.00
2018-05-15T11:08:24.225Z,2.80
2018-05-15T11:09:24.463Z,3.10
2018-05-15T11:10:24.703Z,2.50
2018-05-15T11:11:24.934Z,2.80
2018-05-15T11:12:25.171Z,2.80
2018-05-15T11:13:25.405Z,2.90
2018-05-15T11:14:25.685Z,2.90
2018-05-15T11:15:25.880Z,2.50
2018-05-15T11:16:26.121Z,3.40
2018-05-15T11:17:26.356Z,3.50
2018-05-15T11:18:26.592Z,3.70
2018-05-15T11:19:26.826Z,3.60
2018-05-15T11:20:27.062Z,3.40
2018-05-15T11:21:27.297Z,3.40
2018-05-15T11:22:27.534Z,3.70
2018-05-15T11:23:27.770Z,5.10
2018-05-15T11:24:28.071Z,4.70
2018-05-15T11:25:28.229Z,4.80
2018-05-15T11:26:28.483Z,3.90
2018-05-15T11:27:28.716Z,3.10
2018-05-15T11:28:28.960Z,4.30
2018-05-15T11:29:29.182Z,3.70
2018-05-15T11:30:29.458Z,3.50
2018-05-15T11:31:29.653Z,4.50
2018-05-15T11:32:29.890Z,5.40
2018-05-15T11:33:30.125Z,4.70
2018-05-15T11:34:30.356Z,4.10
2018-05-15T11:35:30.593Z,4.70
2018-05-15T11:36:30.828Z,5.00
2018-05-15T11:37:31.071Z,4.60
2018-05-15T11:38:31.291Z,4.70
2018-05-15T11:39:31.526Z,4.60
2018-05-15T11:40:31.758Z,4.40
2018-05-15T11:41:32.005Z,4.20
2018-05-15T11:42:32.228Z,3.80
2018-05-15T11:43:32.464Z,3.60
2018-05-15T11:44:32.697Z,3.90
2018-05-15T11:45:32.935Z,3.60
2018-05-15T11:46:33.169Z,3.50
2018-05-15T11:47:33.555Z,3.50
2018-05-15T11:48:34.540Z,3.30
2018-05-15T11:49:34.507Z,3.30
2018-05-15T11:50:35.111Z,3.60
2018-05-15T11:51:35.147Z,3.60
2018-05-15T11:52:35.143Z,3.80
2018-05-15T11:53:34.804Z,3.80
2018-05-15T11:54:35.033Z,3.40
2018-05-15T11:55:42.417Z,3.40
2018-05-15T11:56:35.536Z,3.40
2018-05-15T11:57:35.733Z,3.10
2018-05-15T11:58:35.969Z,3.80
2018-05-15T11:59:36.205Z,3.40
2018-05-15T12:00:36.441Z,3.60
2018-05-15T12:01:36.677Z,3.10
2018-05-15T12:02:36.952Z,3.90
2018-05-15T12:03:37.208Z,3.40
2018-05-15T12:04:37.414Z,3.40
2018-05-15T12:05:37.648Z,16.90
2018-05-15T12:06:37.966Z,3.70
2018-05-15T12:07:38.120Z,3.90
2018-05-15T12:08:38.354Z,3.60
2018-05-15T12:09:38.588Z,6.40
2018-05-15T12:10:38.849Z,3.90
2018-05-15T12:11:39.062Z,3.30
2018-05-15T12:12:39.299Z,3.40
2018-05-15T12:13:39.550Z,3.30
2018-05-15T12:14:39.790Z,3.30
2018-05-15T12:15:40.025Z,3.20
2018-05-15T12:16:40.257Z,4.30
2018-05-15T12:17:40.494Z,4.10
2018-05-15T12:18:40.730Z,4.00
2018-05-15T12:19:40.967Z,3.50
2018-05-15T12:20:41.211Z,3.60
2018-05-15T12:21:41.447Z,3.40
2018-05-15T12:22:41.682Z,3.90
2018-05-15T12:23:41.930Z,3.40
2018-05-15T12:24:42.154Z,4.00
2018-05-15T12:25:42.392Z,5.20
2018-05-15T12:26:42.632Z,5.10
2018-05-15T12:27:43.322Z,3.90
2018-05-15T12:28:43.094Z,3.40
2018-05-15T12:29:43.347Z,3.30
2018-05-15T12:30:43.585Z,3.50
2018-05-15T12:31:43.813Z,4.40
2018-05-15T12:32:44.048Z,3.90
2018-05-15T12:33:44.289Z,4.30
2018-05-15T12:34:44.519Z,4.60
2018-05-15T12:35:44.829Z,3.60
2018-05-15T12:36:44.989Z,2.90
2018-05-15T12:37:45.227Z,4.90
2018-05-15T12:38:45.464Z,3.80
2018-05-15T12:39:45.704Z,4.90
2018-05-15T12:40:45.939Z,3.80
2018-05-15T12:41:46.300Z,3.30
2018-05-15T12:42:46.413Z,3.20
2018-05-15T12:43:46.645Z,4.00
2018-05-15T12:44:46.888Z,3.10
2018-05-15T12:45:47.129Z,3.30
2018-05-15T12:46:47.434Z,3.00
2018-05-15T12:47:47.638Z,3.50
2018-05-15T12:48:47.896Z,3.40
2018-05-15T12:49:48.066Z,4.10
2018-05-15T12:50:48.303Z,4.00
2018-05-15T12:51:48.539Z,4.30
2018-05-15T12:52:48.777Z,3.60
2018-05-15T12:53:49.019Z,4.40
2018-05-15T12:54:49.256Z,3.70
2018-05-15T12:55:49.490Z,4.90
2018-05-15T12:56:49.726Z,4.00
2018-05-15T12:57:49.968Z,4.60
2018-05-15T12:58:50.202Z,5.20
2018-05-15T12:59:50.437Z,4.10
2018-05-15T13:00:50.673Z,3.50
2018-05-15T13:01:51.003Z,3.70
2018-05-15T13:02:51.144Z,4.90
2018-05-15T13:03:51.381Z,5.70
2018-05-15T13:04:51.615Z,4.90
2018-05-15T13:05:51.850Z,4.90
2018-05-15T13:06:52.089Z,4.50
2018-05-15T13:07:52.326Z,5.30
2018-05-15T13:08:52.560Z,4.60
2018-05-15T13:09:52.796Z,3.70
2018-05-15T13:10:53.034Z,3.50
2018-05-15T13:11:53.272Z,3.40
2018-05-15T13:12:53.500Z,3.40
2018-05-15T13:13:53.739Z,3.00
2018-05-15T13:14:53.964Z,3.00
2018-05-15T13:15:54.200Z,2.40
2018-05-15T13:16:54.441Z,3.10
2018-05-15T13:17:54.674Z,2.90
2018-05-15T13:18:54.915Z,3.10
2018-05-15T13:19:55.149Z,3.20
2018-05-15T13:20:55.388Z,3.20
2018-05-15T13:21:55.623Z,2.80